Latest Coastal Weather Observations for Shark Bay Airport

IDW60701

Issued at 7:32 pm WST Friday 1 July 2016 (issued every 10 minutes, with the page automatically refreshed every 10 minutes)

About coastal observations | Map of coastal stations | Coastal observations for WA | Marine services | Other Formats
Station Details ID: 006105 Name: SHARK BAY AIRPORT Lat: -25.89 Lon: 113.58 Height: 33.8 m
Data from the previous 72 hours. | See also: Recent months at Shark Bay Airport
Date/Time
WST
Temp
°C
Wind Pressure Rain since
9am
mm
Weather Cloud Vis
km
Sea
Height
m
Swell
Dir  Spd
kts
Gust
kts
hPa Trend Height
m
Period
s
Dir
01/07:30pm 20.3 SE 5 6 1017.6 - 0.0 - - - - - - -
01/07:00pm 20.1 ESE 4 5 1017.4 - 0.0 - - - - - - -
01/06:30pm 19.9 SSE 6 7 1017.0 - 0.0 - - - - - - -
01/06:00pm 20.6 SE 6 8 1016.9 - 0.0 - - - - - - -
01/05:30pm 22.4 SE 8 11 1016.9 - 0.0 - - - - - - -
01/05:00pm 23.3 SE 8 11 1016.8 - 0.0 - - - - - - -
01/04:30pm 23.9 ESE 11 15 1016.6 - 0.0 - - - - - - -
01/04:00pm 23.9 ESE 11 15 1016.7 - 0.0 - - - - - - -
01/03:30pm 24.0 ESE 12 15 1016.8 - 0.0 - - - - - - -
01/03:00pm 24.2 ESE 10 17 1017.0 - 0.0 - - - - - - -
01/02:30pm 23.6 ESE 12 18 1017.2 - 0.0 - - - - - - -
01/02:00pm 23.2 SE 12 17 1017.6 - 0.0 - - - - - - -
01/01:30pm 22.8 ESE 12 15 1018.0 - 0.0 - - - - - - -
01/01:00pm 22.6 SE 11 15 1018.4 - 0.0 - - - - - - -
01/12:30pm 22.2 ESE 11 15 1018.9 - 0.0 - - - - - - -
01/12:00pm 21.6 ESE 12 16 1019.5 - 0.0 - - - - - - -
01/11:30am 21.0 ESE 13 17 1019.9 - 0.0 - - - - - - -
01/11:00am 20.1 E 13 18 1020.3 - 0.0 - - - - - - -
01/10:30am 19.6 E 14 17 1020.6 - 0.0 - - - - - - -
01/10:00am 18.9 E 14 19 1021.0 - 0.0 - - - - - - -
01/09:30am 18.3 E 14 19 1021.2 - 0.0 - - - - - - -
01/09:00am 17.7 ESE 14 20 1021.2 - 0.2 - - - - - - -
01/08:30am 16.7 ESE 12 16 1021.1 - 0.2 - - - - - - -
01/08:00am 15.8 ESE 11 15 1021.0 - 0.2 - - - - - - -
01/07:30am 15.1 ESE 10 14 1020.7 - 0.2 - - - - - - -
01/07:00am 14.9 E 10 15 1020.4 - 0.2 - - - - - - -
01/06:30am 15.1 ESE 10 14 1020.2 - 0.2 - - - - - - -
01/06:00am 14.9 ESE 9 11 1020.0 - 0.2 - - - - - - -
01/05:30am 15.2 ESE 8 11 1019.9 - 0.2 - - - - - - -
01/05:00am 15.8 ESE 11 15 1019.9 - 0.2 - - - - - - -
01/04:30am 15.7 ESE 9 14 1019.9 - 0.2 - - - - - - -
01/04:00am 15.1 ESE 10 14 1020.0 - 0.2 - - - - - - -
01/03:30am 15.0 ESE 11 15 1019.9 - 0.2 - - - - - - -
01/03:00am 15.2 SE 11 15 1020.1 - 0.2 - - - - - - -
01/02:30am 15.1 SE 9 13 1020.6 - 0.2 - - - - - - -
01/02:00am 15.3 SE 9 11 1020.8 - 0.2 - - - - - - -
01/01:30am 15.8 SE 9 12 1021.0 - 0.2 - - - - - - -
01/01:00am 16.0 SE 9 12 1021.1 - 0.2 - - - - - - -
01/12:30am 16.1 SE 10 14 1021.3 - 0.2 - - - - - - -
01/12:00am 16.2 SE 11 17 1021.3 - 0.2 - - - - - - -
 
Date/Time
WST
Temp
°C
Wind Pressure Rain since
9am
mm
Weather Cloud Vis
km
Sea
Height
m
Swell
Dir  Spd
kts
Gust
kts
hPa Trend Height
m
Period
s
Dir
30/11:30pm 16.0 SE 10 14 1021.5 - 0.2 - - - - - - -
30/11:00pm 15.5 SE 8 11 1021.6 - 0.2 - - - - - - -
30/10:30pm 15.8 SE 9 12 1021.7 - 0.2 - - - - - - -
30/10:00pm 16.3 SE 10 14 1021.6 - 0.2 - - - - - - -
30/09:30pm 16.8 SE 10 14 1021.5 - 0.2 - - - - - - -
30/09:00pm 17.1 SE 11 15 1021.5 - 0.2 - - - - - - -
30/08:30pm 17.1 SE 9 13 1021.3 - 0.2 - - - - - - -
30/08:00pm 17.1 SE 9 12 1021.0 - 0.2 - - - - - - -
30/07:30pm 16.5 SSE 7 8 1020.6 - 0.2 - - - - - - -
30/07:00pm 17.2 SSE 7 9 1020.3 - 0.2 - - - - - - -
30/06:30pm 18.2 SSE 8 10 1020.0 - 0.2 - - - - - - -
30/06:00pm 19.0 S 8 12 1019.6 - 0.2 - - - - - - -
30/05:30pm 20.2 S 10 14 1019.3 - 0.2 - - - - - - -
30/05:00pm 21.1 S 13 18 1019.1 - 0.2 - - - - - - -
30/04:30pm 21.7 S 12 16 1018.9 - 0.2 - - - - - - -
30/04:00pm 22.1 SSE 11 16 1018.8 - 0.2 - - - - - - -
30/03:30pm 22.5 S 12 16 1018.6 - 0.2 - - - - - - -
30/03:00pm 22.3 SSE 12 21 1018.5 - 0.2 - - - - - - -
30/02:30pm 22.4 SE 12 17 1018.7 - 0.2 - - - - - - -
30/02:00pm 22.1 SE 13 19 1019.0 - 0.2 - - - - - - -
30/01:30pm 22.1 SE 12 18 1019.3 - 0.2 - - - - - - -
30/01:00pm 22.2 SE 12 16 1019.7 - 0.2 - - - - - - -
30/12:30pm 21.6 SSE 12 17 1020.4 - 0.2 - - - - - - -
30/12:00pm 21.2 SE 14 18 1021.0 - 0.2 - - - - - - -
30/11:30am 21.4 SE 12 17 1021.2 - 0.2 - - - - - - -
30/11:00am 20.1 SE 13 17 1021.7 - 0.2 - - - - - - -
30/10:30am 19.5 SE 13 18 1022.1 - 0.2 - - - - - - -
30/10:00am 18.9 SE 12 17 1022.3 - 0.0 - - - - - - -
30/09:30am 18.7 SE 12 20 1022.4 - 0.0 - - - - - - -
30/09:00am 17.1 SE 12 15 1022.3 - 0.8 - - - - - - -
30/08:30am 15.4 SSE 10 15 1021.9 - 0.8 - - - - - - -
30/08:00am 14.1 SSE 9 14 1021.8 - 0.8 - - - - - - -
30/07:30am 13.6 SSE 9 12 1021.5 - 0.8 - - - - - - -
30/07:00am 13.4 SSE 8 11 1021.3 - 0.8 - - - - - - -
30/06:30am 13.2 S 8 11 1021.2 - 0.8 - - - - - - -
30/06:00am 13.3 SSE 8 10 1020.9 - 0.8 - - - - - - -
30/05:30am 12.9 SSE 8 9 1020.9 - 0.8 - - - - - - -
30/05:00am 13.0 SSE 7 9 1020.7 - 0.8 - - - - - - -
30/04:30am 12.9 SSE 6 7 1020.7 - 0.8 - - - - - - -
30/04:00am 13.0 SSE 7 9 1020.8 - 0.8 - - - - - - -
30/03:30am 13.2 S 7 8 1020.8 - 0.8 - - - - - - -
30/03:00am 13.3 S 7 9 1020.9 - 0.8 - - - - - - -
30/02:30am 12.5 SSE 5 6 1020.8 - 0.8 - - - - - - -
30/02:00am 13.4 S 7 8 1021.1 - 0.8 - - - - - - -
30/01:30am 13.7 S 6 7 1021.2 - 0.8 - - - - - - -
30/01:00am 13.9 SSE 6 8 1021.0 - 0.8 - - - - - - -
30/12:30am 14.0 SSE 5 6 1021.1 - 0.8 - - - - - - -
30/12:00am 14.3 SE 5 6 1021.2 - 0.8 - - - - - - -
 
Date/Time
WST
Temp
°C
Wind Pressure Rain since
9am
mm
Weather Cloud Vis
km
Sea
Height
m
Swell
Dir  Spd
kts
Gust
kts
hPa Trend Height
m
Period
s
Dir
29/11:30pm 14.7 SSE 4 6 1021.3 - 0.8 - - - - - - -
29/11:00pm 15.3 E 4 6 1021.5 - 0.8 - - - - - - -
29/10:30pm 16.0 ESE 5 7 1021.4 - 0.8 - - - - - - -
29/10:00pm 16.4 SE 7 9 1021.3 - 0.8 - - - - - - -
29/09:30pm 16.3 SE 7 10 1021.3 - 0.8 - - - - - - -
29/09:00pm 16.4 SSE 6 8 1021.3 - 0.8 - - - - - - -
29/08:30pm 16.5 SE 9 13 1021.1 - 0.8 - - - - - - -
29/08:00pm 16.6 SE 9 13 1020.9 - 0.8 - - - - - - -
29/07:30pm 16.8 SSE 7 8 1020.9 - 0.8 - - - - - - -
29/07:00pm 16.9 ESE 7 9 1020.3 - 0.8 - - - - - - -
29/06:30pm 16.7 ESE 5 6 1020.1 - 0.8 - - - - - - -
29/06:00pm 17.4 SSE 6 9 1019.9 - 0.8 - - - - - - -
29/05:30pm 17.5 SE 8 12 1019.5 - 0.8 - - - - - - -
29/05:00pm 17.5 SSE 10 14 1019.4 - 0.8 - - - - - - -
29/04:30pm 17.7 SSE 12 16 1019.0 - 0.8 - - - - - - -
29/04:00pm 18.0 SSE 13 18 1018.7 - 0.8 - - - - - - -
29/03:30pm 18.0 SSE 14 19 1018.5 - 0.8 - - - - - - -
29/03:00pm 17.8 SSE 16 23 1018.2 - 0.8 - - - - - - -
29/02:30pm 17.6 S 15 21 1018.4 - 0.8 - - - - - - -
29/02:00pm 18.3 SSE 15 22 1018.1 - 0.8 - - - - - - -
29/01:30pm 18.4 S 14 19 1018.3 - 0.8 - - - - - - -
29/01:00pm 17.8 SSE 17 24 1018.3 - 0.8 - - - - - - -
29/12:30pm 18.3 SSW 17 26 1018.6 - 0.8 - - - - - - -
29/12:24pm 18.2 SSW 16 26 1018.8 - 0.8 - - - - - - -
29/12:00pm 19.0 SSW 12 16 1019.0 - 0.8 Rain - - - - - -
29/11:30am 21.2 WSW 11 15 1018.8 - 0.0 - - - - - - -
29/11:00am 22.4 SW 8 10 1018.8 - 0.0 - - - - - - -
29/10:30am 22.0 SSW 5 7 1018.7 - 0.0 - - - - - - -
29/10:00am 22.1 WSW 5 8 1018.8 - 0.0 - - - - - - -
29/09:30am 21.9 N 4 5 1018.8 - 0.0 - - - - - - -
29/09:00am 19.6 NNE 4 5 1018.6 - 0.0 - - - - - - -
29/08:30am 17.2 NNE 6 8 1018.4 - 0.0 - - - - - - -
29/08:00am 15.5 NE 4 5 1018.1 - 0.0 - - - - - - -
29/07:30am 12.9 NE 5 5 1017.9 - 0.0 - - - - - - -
29/07:00am 13.7 NNE 7 7 1017.5 - 0.0 - - - - - - -
29/06:30am 13.3 NE 5 6 1017.2 - 0.0 - - - - - - -
29/06:00am 12.8 NE 5 6 1016.9 - 0.0 - - - - - - -
29/05:30am 13.2 NNE 5 6 1016.9 - 0.0 - - - - - - -
29/05:00am 12.9 NNE 5 6 1016.9 - 0.0 - - - - - - -
29/04:30am 13.5 NNE 7 9 1017.0 - 0.0 - - - - - - -
29/04:00am 15.2 NNW 5 6 1016.9 - 0.0 - - - - - - -
29/03:30am 14.8 NNW 6 6 1017.0 - 0.0 - - - - - - -
29/03:00am 14.9 NNW 7 7 1016.8 - 0.0 - - - - - - -
29/02:30am 13.9 N 6 6 1016.9 - 0.0 - - - - - - -
29/02:00am 12.1 N 4 5 1017.1 - 0.0 - - - - - - -
29/01:30am 14.9 N 6 6 1017.2 - 0.0 - - - - - - -
29/01:00am 14.8 N 7 7 1017.3 - 0.0 - - - - - - -
29/12:30am 13.1 N 5 6 1017.4 - 0.0 - - - - - - -
29/12:00am 13.6 NNW 5 6 1017.7 - 0.0 - - - - - - -
 
Date/Time
WST
Temp
°C
Wind Pressure Rain since
9am
mm
Weather Cloud Vis
km
Sea
Height
m
Swell
Dir  Spd
kts
Gust
kts
hPa Trend Height
m
Period
s
Dir
28/11:30pm 15.2 N 7 7 1017.7 - 0.0 - - - - - - -
28/11:00pm 15.3 N 7 7 1017.7 - 0.0 - - - - - - -
28/10:30pm 15.0 N 6 6 1017.6 - 0.0 - - - - - - -
28/10:00pm 15.1 N 7 7 1017.4 - 0.0 - - - - - - -
28/09:30pm 15.1 NNW 7 7 1017.4 - 0.0 - - - - - - -
28/09:00pm 15.3 NNW 6 7 1017.4 - 0.0 - - - - - - -
28/08:30pm 15.5 NNW 6 7 1017.5 - 0.0 - - - - - - -
28/08:00pm 15.7 NNW 6 6 1017.3 - 0.0 - - - - - - -

Other Formats:

Comma delimited format used in spreadsheet applications
http://www.bom.gov.au/fwo/IDW60701/IDW60701.95402.axf

JavaScript Object Notation format (JSON) in row-major order
http://www.bom.gov.au/fwo/IDW60701/IDW60701.95402.json